Time;durP1;ratioP1;P1;durP2;ratioP2;P2;SDS_P1;SDS_P2;PMS_P1;PMS_P2;Temp;Humidity;BMP_temperature;BMP_pressure;BME280_temperature;BME280_humidity;BME280_pressure;Samples;Min_cycle;Max_cycle;Signal;HPM_P1;HPM_P2
2022/08/26 00:00:46;;;;;;;52.60;41.75;;;20.90;99.90;;;;;;5015425;28;20127;-65
2022/08/26 00:03:12;;;;;;;51.85;42.78;;;20.90;99.90;;;;;;5015059;28;20484;-65
2022/08/26 00:05:39;;;;;;;48.28;40.67;;;21.10;99.90;;;;;;5015188;28;20049;-65
2022/08/26 00:08:05;;;;;;;53.17;40.53;;;20.90;99.90;;;;;;5015618;28;20072;-65
2022/08/26 00:10:31;;;;;;;46.65;37.50;;;20.90;99.90;;;;;;5015020;28;20042;-65
2022/08/26 00:12:57;;;;;;;45.35;38.05;;;21.10;99.90;;;;;;5015340;28;20057;-65
2022/08/26 00:15:23;;;;;;;41.97;34.90;;;21.30;99.90;;;;;;5014911;28;20042;-65
2022/08/26 00:17:50;;;;;;;42.53;33.92;;;20.90;99.90;;;;;;5015075;28;20044;-65
2022/08/26 00:20:25;;;;;;;41.17;30.60;;;21.20;99.90;;;;;;5014976;28;20052;-65
2022/08/26 00:22:51;;;;;;;39.78;29.17;;;20.90;99.90;;;;;;4998461;28;20046;-65
2022/08/26 00:25:16;;;;;;;33.40;26.80;;;21.20;99.90;;;;;;5007416;28;20542;-65
2022/08/26 00:27:42;;;;;;;44.63;28.83;;;21.10;99.90;;;;;;5032557;28;20034;-65
2022/08/26 00:30:12;;;;;;;33.25;25.83;;;21.10;99.90;;;;;;5032550;28;20033;-65
2022/08/26 00:32:38;;;;;;;39.13;28.35;;;21.20;99.90;;;;;;5014896;28;20045;-65
2022/08/26 00:35:05;;;;;;;38.35;26.77;;;21.20;99.90;;;;;;5032742;28;20044;-65
2022/08/26 00:37:31;;;;;;;40.55;26.98;;;21.20;99.90;;;;;;5014718;28;20049;-65
2022/08/26 00:39:57;;;;;;;41.35;27.27;;;21.40;99.90;;;;;;5032469;28;20045;-65
2022/08/26 00:42:23;;;;;;;35.92;25.58;;;21.10;99.90;;;;;;5032522;28;20561;-65
2022/08/26 00:44:49;;;;;;;36.25;25.95;;;21.20;99.90;;;;;;5032388;28;20037;-65
2022/08/26 00:47:26;;;;;;;32.45;22.70;;;21.30;99.90;;;;;;5014811;28;20041;-65
2022/08/26 00:49:52;;;;;;;31.88;22.90;;;21.40;99.90;;;;;;4998291;28;20041;-64
2022/08/26 00:52:20;;;;;;;29.00;22.08;;;21.10;99.90;;;;;;5032658;28;20041;-65
2022/08/26 00:55:00;;;;;;;32.55;21.58;;;21.30;99.90;;;;;;5014848;28;20100;-65
2022/08/26 00:57:26;;;;;;;32.15;20.83;;;21.30;99.90;;;;;;5032474;28;20415;-65
2022/08/26 00:59:55;;;;;;;31.65;20.25;;;21.60;99.90;;;;;;5032609;28;20037;-65
2022/08/26 01:02:22;;;;;;;35.25;20.73;;;21.10;99.90;;;;;;5035896;28;20569;-65
2022/08/26 01:04:54;;;;;;;30.02;21.75;;;21.20;99.90;;;;;;5035960;28;20125;-65
2022/08/26 01:07:22;;;;;;;30.23;18.83;;;21.00;99.90;;;;;;5036200;28;20060;-65
2022/08/26 01:09:47;;;;;;;29.48;19.90;;;21.50;99.90;;;;;;5017034;28;20045;-65
2022/08/26 01:12:13;;;;;;;31.98;19.13;;;21.00;99.90;;;;;;5036236;28;20033;-65
2022/08/26 01:14:39;;;;;;;30.20;18.33;;;21.40;99.90;;;;;;5036146;28;20041;-65
2022/08/26 01:17:07;;;;;;;27.35;18.13;;;21.30;99.90;;;;;;5018342;28;20038;-65
2022/08/26 01:19:45;;;;;;;28.92;17.23;;;21.10;99.90;;;;;;5018008;28;20399;-65
2022/08/26 01:22:19;;;;;;;27.65;18.50;;;21.20;99.90;;;;;;5005609;28;20041;-65
2022/08/26 01:24:46;;;;;;;20.70;16.58;;;21.30;99.90;;;;;;5035564;28;20510;-65
2022/08/26 01:27:13;;;;;;;25.10;16.73;;;21.20;99.90;;;;;;5017974;28;20037;-65
2022/08/26 01:29:42;;;;;;;26.00;17.77;;;21.30;99.90;;;;;;5017919;28;20045;-65
2022/08/26 01:32:10;;;;;;;26.27;16.15;;;21.20;99.90;;;;;;5001372;28;20037;-65
2022/08/26 01:34:37;;;;;;;19.67;16.23;;;21.20;99.90;;;;;;5035514;28;20068;-65
2022/08/26 01:37:14;;;;;;;24.40;16.00;;;20.90;99.90;;;;;;5017921;28;20037;-65
2022/08/26 01:39:40;;;;;;;30.40;14.65;;;21.00;99.90;;;;;;5017786;28;20120;-65
2022/08/26 01:42:10;;;;;;;23.20;14.80;;;20.90;99.90;;;;;;5035299;28;20176;-65
2022/08/26 01:44:43;;;;;;;22.42;12.98;;;21.10;99.90;;;;;;5035421;28;20049;-65
2022/08/26 01:47:10;;;;;;;20.75;13.85;;;21.10;99.90;;;;;;5035109;28;20048;-65
2022/08/26 01:49:36;;;;;;;21.58;12.00;;;21.00;99.90;;;;;;5035053;28;20417;-65
2022/08/26 01:52:04;;;;;;;19.60;12.02;;;21.20;99.90;;;;;;5035231;28;20102;-65
2022/08/26 01:54:30;;;;;;;19.20;11.85;;;21.00;99.90;;;;;;5035291;28;20056;-65
2022/08/26 01:56:57;;;;;;;16.65;10.73;;;21.10;99.90;;;;;;5035252;28;20034;-65
2022/08/26 01:59:23;;;;;;;16.17;9.88;;;21.10;99.90;;;;;;5035023;28;20033;-65
2022/08/26 02:01:49;;;;;;;18.75;9.95;;;21.10;99.90;;;;;;5034986;28;20052;-65
2022/08/26 02:04:48;;;;;;;16.75;9.73;;;21.10;99.90;;;;;;5034705;28;20046;-65
2022/08/26 02:07:17;;;;;;;14.23;9.88;;;21.10;99.90;;;;;;4974224;28;20045;-65
2022/08/26 02:09:43;;;;;;;17.70;10.30;;;20.90;99.90;;;;;;5034816;28;20042;-65
2022/08/26 02:12:10;;;;;;;21.10;9.85;;;20.90;99.90;;;;;;5034178;28;20465;-65
2022/08/26 02:14:41;;;;;;;22.85;10.25;;;21.00;99.90;;;;;;5034716;28;20033;-65
2022/08/26 02:17:08;;;;;;;20.60;11.15;;;21.20;99.90;;;;;;5034787;28;20115;-65
2022/08/26 02:19:39;;;;;;;18.35;10.15;;;21.20;99.90;;;;;;5034791;28;20034;-64
2022/08/26 02:22:10;;;;;;;14.60;9.27;;;21.20;99.90;;;;;;5016833;28;20041;-65
2022/08/26 02:24:50;;;;;;;20.17;9.52;;;21.20;99.90;;;;;;5034439;28;20061;-64
2022/08/26 02:27:22;;;;;;;13.68;8.77;;;21.30;99.90;;;;;;5034498;28;20491;-65
2022/08/26 02:30:10;;;;;;;20.70;10.13;;;20.90;99.90;;;;;;5016615;28;20484;-65
2022/08/26 02:32:35;;;;;;;22.90;11.20;;;20.80;99.90;;;;;;5016890;28;20050;-65
2022/08/26 02:35:01;;;;;;;16.77;9.52;;;20.90;99.90;;;;;;5016557;28;20037;-64
2022/08/26 02:37:29;;;;;;;17.15;9.60;;;20.90;99.90;;;;;;5034430;28;20095;-64
2022/08/26 02:39:55;;;;;;;15.48;9.77;;;20.90;99.90;;;;;;5034151;28;20040;-65
2022/08/26 02:42:20;;;;;;;15.93;8.68;;;20.90;99.90;;;;;;5034222;28;20582;-64
2022/08/26 02:44:46;;;;;;;15.07;7.82;;;20.90;99.90;;;;;;5034414;28;20113;-64
2022/08/26 02:47:13;;;;;;;15.82;9.00;;;20.90;99.90;;;;;;5008118;28;20044;-65
2022/08/26 02:49:41;;;;;;;17.95;7.70;;;20.70;99.90;;;;;;5033982;28;20077;-65
2022/08/26 02:52:07;;;;;;;17.20;8.35;;;22.00;99.90;;;;;;5033821;28;20036;-64
2022/08/26 02:54:33;;;;;;;13.48;7.40;;;21.00;99.90;;;;;;5034256;28;20049;-64
2022/08/26 02:56:59;;;;;;;21.73;7.43;;;20.70;99.90;;;;;;4999872;28;20487;-64
2022/08/26 02:59:25;;;;;;;18.30;7.50;;;20.70;99.90;;;;;;5016143;28;20034;-64
2022/08/26 03:01:51;;;;;;;12.80;6.65;;;20.90;99.90;;;;;;5033747;28;20116;-64
2022/08/26 03:04:17;;;;;;;17.48;6.82;;;20.80;99.90;;;;;;5016004;28;20576;-65
2022/08/26 03:06:42;;;;;;;14.15;6.25;;;21.00;99.90;;;;;;5016018;28;20041;-64
2022/08/26 03:09:08;;;;;;;16.27;6.32;;;21.00;99.90;;;;;;5033717;28;20072;-64
2022/08/26 03:11:35;;;;;;;10.88;6.47;;;20.70;99.90;;;;;;5033564;28;20053;-65
2022/08/26 03:14:01;;;;;;;12.75;5.70;;;20.70;99.90;;;;;;5015915;28;20048;-65
2022/08/26 03:16:29;;;;;;;13.38;5.32;;;21.00;99.90;;;;;;5033436;28;20038;-65
2022/08/26 03:18:54;;;;;;;15.75;5.63;;;20.80;99.90;;;;;;5015912;28;20439;-64
2022/08/26 03:21:20;;;;;;;13.95;5.07;;;20.70;99.90;;;;;;5033321;28;20049;-64
2022/08/26 03:23:46;;;;;;;15.10;5.18;;;21.00;99.90;;;;;;5032706;28;20091;-64
2022/08/26 03:26:13;;;;;;;16.48;4.53;;;20.90;99.90;;;;;;5015647;28;20044;-64
2022/08/26 03:30:38;;;;;;;10.25;4.25;;;20.90;99.90;;;;;;5033295;28;20049;-64
2022/08/26 03:31:24;;;;;;;14.13;5.15;;;20.90;99.90;;;;;;5015276;28;20594;-64
2022/08/26 03:33:50;;;;;;;13.25;4.72;;;20.70;99.90;;;;;;5015950;28;20065;-64
2022/08/26 03:36:15;;;;;;;13.65;5.25;;;20.60;99.90;;;;;;5015551;28;20052;-64
2022/08/26 03:38:42;;;;;;;8.18;4.00;;;20.80;99.90;;;;;;5033347;28;20034;-64
2022/08/26 03:41:09;;;;;;;15.80;5.00;;;20.80;99.90;;;;;;5015339;28;20163;-64
2022/08/26 03:43:35;;;;;;;12.48;4.57;;;20.70;99.90;;;;;;5033043;28;20045;-64
2022/08/26 03:46:09;;;;;;;11.43;4.55;;;20.90;99.90;;;;;;5015587;28;20407;-64
2022/08/26 03:48:35;;;;;;;10.40;4.50;;;20.50;99.90;;;;;;5033020;28;20037;-64
2022/08/26 03:51:03;;;;;;;10.07;3.20;;;20.90;99.90;;;;;;5032966;28;20296;-64
2022/08/26 03:53:28;;;;;;;6.78;3.38;;;20.80;99.90;;;;;;5015504;28;20060;-64
2022/08/26 03:55:54;;;;;;;13.68;4.18;;;20.80;99.90;;;;;;5015310;28;20495;-64
2022/08/26 03:58:20;;;;;;;9.25;3.13;;;20.60;99.90;;;;;;5015217;28;20045;-64
2022/08/26 04:00:46;;;;;;;13.00;3.40;;;20.70;99.90;;;;;;5032901;28;20040;-64
2022/08/26 04:03:56;;;;;;;12.43;4.07;;;20.60;99.90;;;;;;5032691;28;20454;-65
2022/08/26 04:05:57;;;;;;;11.57;3.40;;;20.50;99.90;;;;;;5019157;28;20050;-64
2022/08/26 04:08:23;;;;;;;13.88;3.80;;;20.30;99.90;;;;;;5032761;28;20044;-64
2022/08/26 04:10:49;;;;;;;9.00;3.22;;;20.70;99.90;;;;;;5032582;28;20080;-64
2022/08/26 04:13:14;;;;;;;21.10;3.95;;;20.50;99.90;;;;;;5015189;28;20080;-64
2022/08/26 04:15:40;;;;;;;13.45;3.80;;;20.50;99.90;;;;;;5032715;28;20083;-64
2022/08/26 04:18:05;;;;;;;12.55;4.50;;;20.60;99.90;;;;;;5014971;28;20091;-64
2022/08/26 04:20:31;;;;;;;11.20;3.92;;;20.60;99.90;;;;;;4998934;28;20087;-64
2022/08/26 04:22:56;;;;;;;11.63;4.07;;;20.60;99.90;;;;;;5014880;28;20491;-64
2022/08/26 04:25:22;;;;;;;15.35;4.45;;;20.50;99.90;;;;;;5032629;28;20048;-64
2022/08/26 04:27:47;;;;;;;13.77;4.60;;;20.60;99.90;;;;;;5032353;28;20038;-64
2022/08/26 04:30:13;;;;;;;14.05;4.97;;;20.40;99.90;;;;;;5015018;28;20087;-64
2022/08/26 04:32:39;;;;;;;11.48;3.97;;;20.70;99.90;;;;;;5015284;28;20048;-64
2022/08/26 04:35:05;;;;;;;12.02;4.00;;;20.60;99.90;;;;;;5016596;28;20033;-64
2022/08/26 04:37:32;;;;;;;15.07;4.95;;;20.40;99.90;;;;;;5036744;28;20048;-64
2022/08/26 04:39:58;;;;;;;12.27;4.30;;;20.50;99.90;;;;;;5036506;28;20403;-64
2022/08/26 04:42:23;;;;;;;10.68;4.25;;;20.50;99.90;;;;;;5036520;28;20042;-64
2022/08/26 04:44:49;;;;;;;18.38;6.00;;;20.40;99.90;;;;;;5036451;28;20049;-64
2022/08/26 04:47:14;;;;;;;10.20;3.70;;;20.30;99.90;;;;;;5036275;28;20112;-64
2022/08/26 04:49:40;;;;;;;11.75;4.32;;;20.60;99.90;;;;;;5036529;28;20583;-64
2022/08/26 04:52:06;;;;;;;13.90;4.65;;;20.50;99.90;;;;;;5036302;28;20044;-64
2022/08/26 04:54:32;;;;;;;15.13;4.10;;;20.70;99.90;;;;;;5018587;28;20034;-64
2022/08/26 04:56:57;;;;;;;11.57;4.03;;;20.50;99.90;;;;;;5035868;28;20081;-64
2022/08/26 04:59:23;;;;;;;14.35;3.83;;;20.60;99.90;;;;;;5018688;28;20044;-64
2022/08/26 05:01:51;;;;;;;14.50;4.05;;;20.80;99.90;;;;;;5018273;28;20037;-64
2022/08/26 05:04:18;;;;;;;13.63;4.40;;;20.60;99.90;;;;;;5018230;28;20049;-64
2022/08/26 05:06:44;;;;;;;14.35;3.78;;;20.30;99.90;;;;;;5036206;28;20056;-64
2022/08/26 05:09:12;;;;;;;13.52;3.75;;;20.70;99.90;;;;;;5035936;28;20029;-64
2022/08/26 05:11:37;;;;;;;18.23;4.60;;;20.50;99.90;;;;;;5035810;28;20034;-64
2022/08/26 05:14:04;;;;;;;16.17;4.35;;;20.60;99.90;;;;;;5035867;28;20407;-64
2022/08/26 05:16:31;;;;;;;19.30;3.97;;;20.70;99.90;;;;;;5035754;28;20037;-64
2022/08/26 05:18:57;;;;;;;19.33;3.90;;;20.70;99.90;;;;;;5036060;28;20038;-64
2022/08/26 05:21:25;;;;;;;19.42;3.97;;;20.60;99.90;;;;;;5035805;28;20044;-64
2022/08/26 05:23:51;;;;;;;15.07;4.20;;;20.70;99.90;;;;;;5035825;28;20041;-64
2022/08/26 05:26:18;;;;;;;16.50;3.35;;;20.60;99.90;;;;;;5035575;28;20052;-64
2022/08/26 05:28:44;;;;;;;13.63;3.38;;;21.00;99.90;;;;;;5017966;28;20041;-64
2022/08/26 05:31:22;;;;;;;17.17;3.40;;;21.00;99.90;;;;;;5017697;28;20050;-64
2022/08/26 05:33:48;;;;;;;13.05;3.55;;;20.90;99.90;;;;;;5018249;28;20052;-64
2022/08/26 05:36:22;;;;;;;12.15;3.08;;;20.60;99.90;;;;;;5017722;28;20048;-64
2022/08/26 05:38:48;;;;;;;9.60;2.80;;;20.50;99.90;;;;;;5017844;28;20045;-64
2022/08/26 05:41:17;;;;;;;12.32;2.95;;;20.90;99.90;;;;;;5035421;28;20043;-64
2022/08/26 05:43:44;;;;;;;12.02;2.53;;;20.80;99.90;;;;;;5017474;28;20041;-64
2022/08/26 05:46:09;;;;;;;10.85;2.92;;;21.00;99.90;;;;;;5034665;28;20095;-64
2022/08/26 05:48:35;;;;;;;12.27;3.15;;;20.90;99.90;;;;;;5035327;28;20045;-64
2022/08/26 05:51:05;;;;;;;11.27;2.53;;;21.80;99.90;;;;;;5017287;28;20061;-64
2022/08/26 05:53:31;;;;;;;7.25;2.28;;;20.80;99.90;;;;;;5035132;28;20038;-64
2022/08/26 05:55:58;;;;;;;13.20;3.10;;;20.80;99.90;;;;;;5017553;28;20087;-64
2022/08/26 05:58:23;;;;;;;11.90;2.75;;;21.00;99.90;;;;;;5034669;28;20079;-65
2022/08/26 06:01:06;;;;;;;11.05;2.85;;;20.80;99.90;;;;;;5017338;28;20417;-64
2022/08/26 06:03:34;;;;;;;13.95;2.38;;;20.40;99.90;;;;;;5016989;28;20077;-64
2022/08/26 06:06:09;;;;;;;44.22;5.00;;;20.70;99.90;;;;;;5034909;28;20041;-64
2022/08/26 06:08:36;;;;;;;29.80;2.97;;;20.60;99.90;;;;;;5034890;28;20042;-65
2022/08/26 06:11:05;;;;;;;17.63;2.53;;;20.60;99.90;;;;;;5034621;28;20064;-64
2022/08/26 06:13:31;;;;;;;15.52;3.45;;;20.70;99.90;;;;;;5034689;28;20045;-65
2022/08/26 06:15:58;;;;;;;29.88;3.95;;;20.70;99.90;;;;;;5017068;28;20052;-64
2022/08/26 06:18:33;;;;;;;40.38;3.95;;;20.60;99.90;;;;;;5034815;28;20029;-65
2022/08/26 06:21:00;;;;;;;33.28;3.67;;;20.60;99.90;;;;;;5016981;28;20513;-65
2022/08/26 06:26:14;;;;;;;25.95;2.90;;;20.70;99.90;;;;;;5016211;28;20045;-63
2022/08/26 06:28:40;;;;;;;26.08;3.85;;;20.80;99.90;;;;;;5034008;28;20072;-63
2022/08/26 06:31:06;;;;;;;10.50;2.75;;;20.60;99.90;;;;;;5034016;28;20107;-63
2022/08/26 06:33:32;;;;;;;36.25;3.85;;;20.60;99.90;;;;;;5003928;28;20041;-63
2022/08/26 06:35:57;;;;;;;23.30;2.90;;;20.50;99.90;;;;;;5013717;28;20037;-63
2022/08/26 06:38:24;;;;;;;17.75;2.45;;;20.60;99.90;;;;;;5031491;28;20087;-64
2022/08/26 06:40:52;;;;;;;14.32;3.55;;;20.50;99.90;;;;;;5008974;28;20053;-63
2022/08/26 06:43:21;;;;;;;27.38;3.92;;;20.50;99.90;;;;;;5016295;28;20037;-64
2022/08/26 06:45:47;;;;;;;13.75;2.97;;;20.50;99.90;;;;;;5027628;28;20037;-64
2022/08/26 06:48:14;;;;;;;22.35;3.08;;;20.60;99.90;;;;;;5034057;28;20044;-63
2022/08/26 06:50:41;;;;;;;18.63;2.22;;;20.50;99.90;;;;;;5033535;28;20037;-64
2022/08/26 06:53:08;;;;;;;9.57;2.55;;;20.70;99.90;;;;;;5015307;28;20475;-64
2022/08/26 06:55:44;;;;;;;18.88;2.63;;;20.50;99.90;;;;;;5033666;28;20056;-64
2022/08/26 06:58:12;;;;;;;26.38;3.20;;;20.50;99.90;;;;;;5030908;28;20117;-64
2022/08/26 07:00:38;;;;;;;15.80;2.72;;;20.30;99.90;;;;;;5033173;28;20063;-64
2022/08/26 07:03:05;;;;;;;13.85;2.38;;;20.40;99.90;;;;;;5027409;28;20400;-65
2022/08/26 07:05:32;;;;;;;11.38;1.95;;;20.50;99.90;;;;;;5031369;28;20052;-64
2022/08/26 07:07:58;;;;;;;12.13;2.10;;;20.60;99.90;;;;;;5032437;28;20101;-64
2022/08/26 07:10:25;;;;;;;9.45;1.77;;;20.70;99.90;;;;;;5032330;28;20035;-64
2022/08/26 07:12:51;;;;;;;11.77;2.15;;;20.80;99.90;;;;;;5032594;28;20602;-65
2022/08/26 07:15:17;;;;;;;10.23;1.67;;;20.50;99.90;;;;;;5008533;28;20038;-63
2022/08/26 07:17:42;;;;;;;9.45;1.75;;;20.60;99.90;;;;;;5016703;28;20088;-63
2022/08/26 07:20:10;;;;;;;7.78;1.23;;;20.80;99.90;;;;;;5019601;28;20404;-66
2022/08/26 07:22:36;;;;;;;8.32;1.45;;;20.60;99.90;;;;;;5033514;28;20049;-65
2022/08/26 07:25:06;;;;;;;11.18;1.20;;;20.40;99.90;;;;;;5033314;28;20428;-66
2022/08/26 07:27:32;;;;;;;18.45;2.30;;;20.70;99.90;;;;;;5033363;28;20526;-66
2022/08/26 07:29:57;;;;;;;14.90;2.15;;;20.70;99.90;;;;;;5033194;28;20037;-66
2022/08/26 07:32:23;;;;;;;18.13;2.33;;;20.60;99.90;;;;;;5033006;28;20377;-66
2022/08/26 07:34:49;;;;;;;13.75;1.92;;;20.50;99.90;;;;;;5031484;28;20036;-67
2022/08/26 07:37:14;;;;;;;20.08;2.08;;;20.80;99.90;;;;;;5033329;28;20087;-66
2022/08/26 07:39:41;;;;;;;17.48;2.03;;;20.60;99.90;;;;;;5033277;28;20033;-66
2022/08/26 07:42:07;;;;;;;14.38;2.30;;;20.40;99.90;;;;;;5032872;28;20037;-66
2022/08/26 07:44:35;;;;;;;15.63;2.10;;;20.60;99.90;;;;;;5015666;28;20396;-66
2022/08/26 07:47:01;;;;;;;11.70;1.85;;;20.50;99.90;;;;;;4999056;28;20372;-66
2022/08/26 07:49:26;;;;;;;13.10;2.33;;;20.60;99.90;;;;;;5015315;28;20073;-67
2022/08/26 07:51:53;;;;;;;17.25;2.13;;;20.50;99.90;;;;;;5032562;28;20041;-66
2022/08/26 07:54:19;;;;;;;20.15;2.33;;;21.00;99.90;;;;;;5032869;28;20491;-66
2022/08/26 07:56:46;;;;;;;12.73;2.60;;;20.50;99.90;;;;;;5032906;28;20411;-66
2022/08/26 07:59:12;;;;;;;7.60;1.17;;;20.50;99.90;;;;;;5015228;28;20037;-66
2022/08/26 08:01:38;;;;;;;14.15;2.55;;;20.50;99.90;;;;;;5032609;28;20407;-66
2022/08/26 08:04:04;;;;;;;7.13;1.20;;;20.40;99.90;;;;;;5014904;28;20045;-66
2022/08/26 08:06:30;;;;;;;12.07;1.67;;;20.60;99.90;;;;;;5032652;28;20045;-66
2022/08/26 08:08:56;;;;;;;11.40;1.60;;;20.40;99.90;;;;;;5032406;28;20049;-66
2022/08/26 08:11:25;;;;;;;8.90;1.55;;;20.70;99.90;;;;;;5032845;28;20060;-66
2022/08/26 08:13:50;;;;;;;14.73;1.33;;;20.80;99.90;;;;;;5014998;28;20053;-66
2022/08/26 08:16:16;;;;;;;5.65;1.35;;;20.60;99.90;;;;;;5032056;28;20131;-64
2022/08/26 08:18:41;;;;;;;12.25;1.80;;;20.70;99.90;;;;;;5032355;28;20034;-64
2022/08/26 08:21:07;;;;;;;7.47;1.33;;;20.70;99.90;;;;;;5014940;28;20052;-63
2022/08/26 08:23:34;;;;;;;10.30;1.40;;;20.80;99.90;;;;;;5032588;28;20030;-64
2022/08/26 08:26:01;;;;;;;15.02;2.00;;;20.90;99.90;;;;;;5032851;28;20053;-64
2022/08/26 08:28:27;;;;;;;10.23;1.30;;;20.90;99.90;;;;;;5015075;28;20041;-64
2022/08/26 08:30:53;;;;;;;10.48;1.00;;;20.90;99.90;;;;;;5031940;28;20458;-64
2022/08/26 08:33:18;;;;;;;7.72;1.25;;;20.90;99.90;;;;;;5030799;28;20037;-63
2022/08/26 08:35:44;;;;;;;6.90;0.90;;;20.80;99.90;;;;;;5032439;28;20041;-64
2022/08/26 08:38:10;;;;;;;19.70;2.60;;;20.80;99.90;;;;;;5032822;28;20038;-64
2022/08/26 08:40:40;;;;;;;8.13;1.23;;;20.80;99.90;;;;;;5032251;28;20045;-64
2022/08/26 08:43:09;;;;;;;14.20;1.65;;;20.80;99.90;;;;;;5032731;28;20033;-64
2022/08/26 08:45:35;;;;;;;8.52;0.80;;;21.00;99.90;;;;;;5032664;28;20038;-64
2022/08/26 08:48:22;;;;;;;13.85;1.55;;;20.90;99.90;;;;;;5033112;28;20499;-64
2022/08/26 08:50:51;;;;;;;7.72;0.80;;;20.80;99.90;;;;;;5009432;28;20048;-64
2022/08/26 08:53:21;;;;;;;33.92;3.13;;;20.80;99.90;;;;;;5015263;28;20041;-64
2022/08/26 08:56:02;;;;;;;11.43;1.05;;;22.00;99.90;;;;;;5015329;28;20042;-63
2022/08/26 08:58:48;;;;;;;12.75;1.00;;;20.80;99.90;;;;;;5009736;28;20041;-64
2022/08/26 09:01:51;;;;;;;16.25;1.45;;;21.00;99.90;;;;;;5032707;28;20037;-64
2022/08/26 09:04:36;;;;;;;12.93;2.30;;;20.70;99.90;;;;;;5012280;28;20442;-64
2022/08/26 09:07:05;;;;;;;13.18;2.40;;;20.90;99.90;;;;;;5010046;28;20057;-64
2022/08/26 09:09:38;;;;;;;10.63;1.00;;;20.90;99.90;;;;;;5015030;28;20041;-64
2022/08/26 09:12:10;;;;;;;10.30;0.93;;;20.80;99.90;;;;;;5014792;28;20053;-64
2022/08/26 09:14:35;;;;;;;6.70;1.20;;;20.80;99.90;;;;;;5015095;28;20487;-64
2022/08/26 09:17:10;;;;;;;9.43;0.85;;;21.00;99.90;;;;;;5032877;28;20100;-64
2022/08/26 09:19:43;;;;;;;13.90;1.58;;;20.80;99.90;;;;;;5032827;28;20480;-64
2022/08/26 09:22:09;;;;;;;14.95;1.35;;;20.80;99.90;;;;;;5034560;28;20056;-64
2022/08/26 09:24:38;;;;;;;13.95;1.40;;;20.90;99.90;;;;;;5036488;28;20029;-65
2022/08/26 09:27:03;;;;;;;5.50;1.02;;;20.80;99.90;;;;;;5018667;28;20094;-64
2022/08/26 09:29:39;;;;;;;6.18;0.90;;;20.80;99.90;;;;;;5017646;28;20041;-65
2022/08/26 09:32:23;;;;;;;10.00;0.82;;;21.10;99.90;;;;;;5035357;28;20422;-65
2022/08/26 09:34:58;;;;;;;10.48;1.35;;;21.10;99.90;;;;;;5005127;28;20072;-64
2022/08/26 09:37:43;;;;;;;9.98;1.38;;;21.40;99.90;;;;;;5033528;28;20045;-65
2022/08/26 09:40:15;;;;;;;7.07;0.88;;;21.10;99.90;;;;;;5017078;28;20404;-64
2022/08/26 09:42:41;;;;;;;11.60;1.10;;;21.10;99.90;;;;;;5017009;28;20034;-64
2022/08/26 09:45:09;;;;;;;6.07;0.65;;;21.10;99.90;;;;;;5021808;28;20514;-64
2022/08/26 09:47:46;;;;;;;8.40;1.00;;;21.00;99.90;;;;;;4999607;28;20038;-64
2022/08/26 09:50:33;;;;;;;10.38;1.23;;;20.80;99.90;;;;;;5002050;28;20058;-64
2022/08/26 09:53:14;;;;;;;9.05;1.20;;;21.00;99.90;;;;;;4997802;28;20442;-64
2022/08/26 09:55:46;;;;;;;4.35;0.88;;;20.90;99.90;;;;;;5017298;28;20041;-64
2022/08/26 09:58:36;;;;;;;4.63;1.00;;;20.80;99.90;;;;;;5035345;28;20043;-64
2022/08/26 10:01:08;;;;;;;11.30;1.00;;;21.00;99.90;;;;;;5023024;28;20041;-64
2022/08/26 10:03:37;;;;;;;7.50;1.52;;;20.70;99.90;;;;;;5016937;28;20129;-64
2022/08/26 10:06:11;;;;;;;6.38;0.55;;;20.80;99.90;;;;;;5035116;28;20049;-64
2022/08/26 10:08:53;;;;;;;6.70;0.80;;;20.80;99.90;;;;;;5017373;28;20483;-64
2022/08/26 10:11:36;;;;;;;13.80;0.98;;;20.70;99.90;;;;;;5005676;28;20034;-65
2022/08/26 10:14:23;;;;;;;10.30;1.25;;;21.10;99.90;;;;;;5017607;28;20108;-64
2022/08/26 10:17:05;;;;;;;5.47;1.20;;;21.10;99.90;;;;;;5030027;28;20034;-64
2022/08/26 10:19:42;;;;;;;6.15;1.08;;;20.80;99.90;;;;;;5029151;28;20484;-64
2022/08/26 10:22:33;;;;;;;6.10;1.33;;;20.90;99.90;;;;;;5012011;28;20037;-64
2022/08/26 10:25:02;;;;;;;9.05;1.58;;;20.80;99.90;;;;;;5020098;28;20388;-64
2022/08/26 10:27:47;;;;;;;4.25;0.63;;;21.10;99.90;;;;;;5015193;28;20049;-63
2022/08/26 10:30:17;;;;;;;6.65;0.77;;;20.70;99.90;;;;;;5033895;28;20714;-64
2022/08/26 10:32:50;;;;;;;7.00;0.95;;;21.00;99.90;;;;;;5022940;28;20564;-63
2022/08/26 10:35:18;;;;;;;6.80;1.13;;;21.00;99.90;;;;;;5034626;28;20454;-65
2022/08/26 10:37:59;;;;;;;6.93;2.28;;;20.80;99.90;;;;;;5019088;28;20084;-65
2022/08/26 10:40:59;;;;;;;7.63;1.02;;;20.80;99.90;;;;;;5034519;28;20448;-64
2022/08/26 10:43:28;;;;;;;6.88;0.60;;;20.80;99.90;;;;;;5013407;28;20056;-65
2022/08/26 10:46:04;;;;;;;11.18;0.80;;;20.90;99.90;;;;;;5034252;28;20124;-65
2022/08/26 10:49:03;;;;;;;5.45;0.50;;;20.90;99.90;;;;;;5012283;28;20124;-65
2022/08/26 10:51:35;;;;;;;7.03;0.70;;;20.60;99.90;;;;;;5016013;28;20084;-64
2022/08/26 10:54:29;;;;;;;5.13;0.50;;;20.70;99.90;;;;;;5034314;28;20041;-65
2022/08/26 10:57:09;;;;;;;4.25;0.35;;;20.60;99.90;;;;;;5030013;28;20108;-65
2022/08/26 10:59:47;;;;;;;7.78;0.65;;;20.90;99.90;;;;;;5034307;28;20041;-64
2022/08/26 11:02:47;;;;;;;7.15;1.35;;;20.70;99.90;;;;;;5016258;28;20483;-65
2022/08/26 11:05:22;;;;;;;7.50;0.63;;;20.80;99.90;;;;;;5033407;28;20049;-64
2022/08/26 11:08:15;;;;;;;7.53;1.42;;;20.70;99.90;;;;;;5016160;28;20056;-65
2022/08/26 11:10:41;;;;;;;4.03;0.57;;;20.90;99.90;;;;;;5013315;28;20056;-65
2022/08/26 11:13:07;;;;;;;8.38;0.63;;;20.80;99.90;;;;;;5016364;28;20400;-65
2022/08/26 11:15:39;;;;;;;14.02;2.30;;;20.60;99.90;;;;;;5015671;28;20042;-64
2022/08/26 11:18:10;;;;;;;8.32;0.73;;;21.00;99.90;;;;;;5014643;28;20033;-65
2022/08/26 11:20:38;;;;;;;7.50;0.63;;;20.60;99.90;;;;;;5033459;28;20479;-65
2022/08/26 11:23:25;;;;;;;4.05;0.52;;;20.80;99.90;;;;;;5033093;28;20037;-65
2022/08/26 11:26:00;;;;;;;11.57;0.98;;;20.70;99.90;;;;;;5023685;28;20480;-65
2022/08/26 11:28:38;;;;;;;7.68;1.02;;;21.00;99.90;;;;;;5033392;28;20048;-65
2022/08/26 11:31:08;;;;;;;9.13;1.08;;;20.90;99.90;;;;;;5033540;28;20049;-65
2022/08/26 11:33:44;;;;;;;5.28;1.00;;;20.90;99.90;;;;;;5031446;28;20041;-65
2022/08/26 11:36:30;;;;;;;8.90;1.02;;;20.70;99.90;;;;;;5015810;28;20045;-66
2022/08/26 11:38:57;;;;;;;6.82;0.70;;;20.60;99.90;;;;;;5032459;28;20038;-63
2022/08/26 11:41:27;;;;;;;3.92;0.70;;;20.70;99.90;;;;;;5015541;28;20522;-63
2022/08/26 11:43:54;;;;;;;10.77;1.08;;;20.60;99.90;;;;;;5013016;28;20522;-63
2022/08/26 11:46:26;;;;;;;7.22;0.70;;;20.70;99.90;;;;;;5032908;28;20045;-63
2022/08/26 11:49:00;;;;;;;4.43;0.60;;;20.60;99.90;;;;;;5032311;28;20029;-63
2022/08/26 11:51:25;;;;;;;5.03;0.50;;;20.80;99.90;;;;;;5014774;28;20073;-63
2022/08/26 11:54:08;;;;;;;5.57;0.65;;;20.70;99.90;;;;;;5032298;28;20462;-63
2022/08/26 11:56:35;;;;;;;3.00;0.50;;;20.70;99.90;;;;;;5013902;28;20042;-63
2022/08/26 11:59:05;;;;;;;4.47;0.50;;;20.70;99.90;;;;;;5032761;28;20037;-63
2022/08/26 12:01:37;;;;;;;7.28;1.00;;;20.90;99.90;;;;;;5032323;28;20521;-63
2022/08/26 12:04:05;;;;;;;6.10;0.63;;;20.60;99.90;;;;;;5014383;28;20063;-63
2022/08/26 12:06:36;;;;;;;6.22;1.02;;;20.70;99.90;;;;;;5015319;28;20396;-63
2022/08/26 12:09:07;;;;;;;6.50;0.75;;;20.50;99.90;;;;;;5032751;28;20052;-63
2022/08/26 12:11:35;;;;;;;5.85;0.57;;;20.70;99.90;;;;;;5014952;28;20507;-63
2022/08/26 12:14:06;;;;;;;8.23;0.88;;;20.60;99.90;;;;;;5032446;28;20108;-63
2022/08/26 12:16:35;;;;;;;6.60;0.95;;;20.80;99.90;;;;;;4997907;28;20415;-63
2022/08/26 12:19:27;;;;;;;4.80;0.70;;;20.90;99.90;;;;;;5032589;28;20049;-63
2022/08/26 12:22:05;;;;;;;5.18;0.85;;;20.70;99.90;;;;;;5007410;28;20038;-63
2022/08/26 12:24:31;;;;;;;4.63;0.40;;;20.90;99.90;;;;;;5029934;28;20064;-64
2022/08/26 12:27:23;;;;;;;5.60;0.60;;;20.90;99.90;;;;;;5032125;28;20080;-65
2022/08/26 12:30:15;;;;;;;10.93;0.63;;;20.80;99.90;;;;;;5031879;28;20029;-65
2022/08/26 12:32:45;;;;;;;7.10;0.80;;;21.10;99.90;;;;;;5012118;28;20049;-65
2022/08/26 12:35:15;;;;;;;11.55;1.02;;;21.10;99.90;;;;;;5031240;28;20037;-65
2022/08/26 12:37:46;;;;;;;6.43;1.25;;;21.40;99.90;;;;;;5014390;28;20084;-65
2022/08/26 12:40:42;;;;;;;5.35;0.73;;;21.10;99.90;;;;;;5014955;28;20052;-65
2022/08/26 12:43:09;;;;;;;8.68;1.02;;;21.40;99.90;;;;;;5032215;28;20039;-65
2022/08/26 12:45:41;;;;;;;3.65;0.50;;;21.30;99.90;;;;;;5032399;28;20112;-65
2022/08/26 12:48:31;;;;;;;4.70;0.82;;;21.50;99.90;;;;;;5014529;28;20037;-65
2022/08/26 12:50:58;;;;;;;5.90;0.90;;;21.50;99.90;;;;;;5019811;28;20046;-64
2022/08/26 12:53:30;;;;;;;5.70;0.90;;;21.40;99.90;;;;;;4997697;28;20038;-65
2022/08/26 12:55:59;;;;;;;3.67;0.88;;;21.40;99.90;;;;;;5033734;28;20052;-65